This is the latest recevied weather packets stored in our database for station/object AD7ZD. If no packets are shown the sender has not sent any weather packets the latest 1 day(s).
| Time | Temp. | Humidity | Pressure | Rain* | Wind** | Luminosity | Snow |
|---|---|---|---|---|---|---|---|
| 1778011716 | 12.78° C | 68% | 1011.4 hPa | 0 mm | 1.79 m/s, 250° | 449 W/m² | - |
| 1778011412 | 12.78° C | 67% | 1011.6 hPa | 0 mm | 1.34 m/s, 222° | 365 W/m² | - |
| 1778011108 | 13.33° C | 68% | 1011.7 hPa | 0 mm | 2.24 m/s, 145° | 383 W/m² | - |
| 1778010805 | 12.78° C | 68% | 1011.8 hPa | 0 mm | 1.79 m/s, 155° | 422 W/m² | - |
| 1778010502 | 12.22° C | 68% | 1011.8 hPa | 0 mm | 0 m/s | 442 W/m² | - |
| 1778010200 | 13.89° C | 68% | 1011.7 hPa | 0 mm | 1.79 m/s, 169° | 318 W/m² | - |
| 1778009895 | 12.78° C | 68% | 1011.8 hPa | 0 mm | 0 m/s | 636 W/m² | - |
| 1778009593 | 12.78° C | 71% | 1011.7 hPa | 0 mm | 1.79 m/s, 130° | 697 W/m² | - |
| 1778009291 | 11.67° C | 71% | 1012 hPa | 0 mm | 1.34 m/s, 222° | 202 W/m² | - |
| 1778008989 | 12.22° C | 72% | 1011.7 hPa | 0 mm | 1.79 m/s, 206° | 220 W/m² | - |
| 1778008686 | 11.67° C | 73% | 1011.8 hPa | 0 mm | 2.24 m/s, 171° | 416 W/m² | - |
| 1778008384 | 11.67° C | 73% | 1011.7 hPa | 0 mm | 0.89 m/s, 180° | 769 W/m² | - |
| 1778008080 | 11.67° C | 76% | 1011.8 hPa | 0 mm | 1.34 m/s, 176° | 955 W/m² | - |
| 1778007776 | 12.22° C | 75% | 1012 hPa | 0 mm | 1.79 m/s, 208° | 504 W/m² | - |
| 1778007472 | 11.67° C | 73% | 1011.9 hPa | 0 mm | 1.79 m/s, 219° | 458 W/m² | - |
| 1778007169 | 11.11° C | 75% | 1011.9 hPa | 0 mm | 1.34 m/s, 233° | 482 W/m² | - |
| 1778006865 | 11.67° C | 76% | 1012 hPa | 0 mm | 2.24 m/s, 229° | 336 W/m² | - |
| 1778006562 | 11.11° C | 80% | 1011.8 hPa | 0 mm | 1.34 m/s, 186° | 401 W/m² | - |
| 1778006259 | 10.56° C | 79% | 1011.9 hPa | 0 mm | 1.34 m/s, 213° | 324 W/m² | - |
| 1778005956 | 10.56° C | 80% | 1011.9 hPa | 0 mm | 2.24 m/s, 204° | 240 W/m² | - |
| 1778005653 | 10.56° C | 80% | 1011.7 hPa | 0 mm | 1.34 m/s, 214° | 286 W/m² | - |
| 1778005349 | 10.56° C | 80% | 1011.7 hPa | 0 mm | 1.34 m/s, 202° | 281 W/m² | - |
| 1778005046 | 10.56° C | 81% | 1011.6 hPa | 0 mm | 2.24 m/s, 190° | 262 W/m² | - |
| 1778004744 | 10.56° C | 81% | 1011.4 hPa | 0 mm | 1.79 m/s, 213° | 245 W/m² | - |
| 1778004440 | 10° C | 81% | 1011.4 hPa | 0 mm | 2.24 m/s, 199° | 219 W/m² | - |
* Rain latest hour (hover to see other rain measurements)
** Current wind speed in m/s (hover to see current wind gust speed)